sensor_id;sensor_type;location;lat;lon;timestamp;temperature;humidity
12981;DHT22;6555;50.468;8.480;2022-07-21T00:05:08;25.80;45.60
12981;DHT22;6555;50.468;8.480;2022-07-21T00:10:40;25.80;44.50
12981;DHT22;6555;50.468;8.480;2022-07-21T00:15:56;25.80;46.00
12981;DHT22;6555;50.468;8.480;2022-07-21T00:21:26;25.80;44.70
12981;DHT22;6555;50.468;8.480;2022-07-21T00:26:44;25.80;46.00
12981;DHT22;6555;50.468;8.480;2022-07-21T00:32:14;25.90;45.00
12981;DHT22;6555;50.468;8.480;2022-07-21T00:37:31;25.80;46.00
12981;DHT22;6555;50.468;8.480;2022-07-21T00:43:02;25.80;44.80
12981;DHT22;6555;50.468;8.480;2022-07-21T00:48:18;25.80;46.60
12981;DHT22;6555;50.468;8.480;2022-07-21T00:53:48;25.80;45.20
12981;DHT22;6555;50.468;8.480;2022-07-21T00:59:06;25.70;46.60
12981;DHT22;6555;50.468;8.480;2022-07-21T01:04:36;25.70;45.80
12981;DHT22;6555;50.468;8.480;2022-07-21T01:09:55;25.70;47.00
12981;DHT22;6555;50.468;8.480;2022-07-21T01:15:27;25.60;46.40
12981;DHT22;6555;50.468;8.480;2022-07-21T01:20:50;25.50;47.40
12981;DHT22;6555;50.468;8.480;2022-07-21T01:26:22;25.40;47.40
12981;DHT22;6555;50.468;8.480;2022-07-21T01:31:40;25.30;47.70
12981;DHT22;6555;50.468;8.480;2022-07-21T01:37:11;25.20;46.80
12981;DHT22;6555;50.468;8.480;2022-07-21T01:42:29;25.10;48.00
12981;DHT22;6555;50.468;8.480;2022-07-21T01:47:59;25.00;47.00
12981;DHT22;6555;50.468;8.480;2022-07-21T01:53:15;24.80;47.90
12981;DHT22;6555;50.468;8.480;2022-07-21T01:58:47;24.70;47.00
12981;DHT22;6555;50.468;8.480;2022-07-21T02:04:04;24.60;48.00
12981;DHT22;6555;50.468;8.480;2022-07-21T02:09:34;24.40;47.20
12981;DHT22;6555;50.468;8.480;2022-07-21T02:14:52;24.20;48.00
12981;DHT22;6555;50.468;8.480;2022-07-21T02:20:23;24.00;47.40
12981;DHT22;6555;50.468;8.480;2022-07-21T02:25:39;23.90;48.40
12981;DHT22;6555;50.468;8.480;2022-07-21T02:31:10;23.80;47.40
12981;DHT22;6555;50.468;8.480;2022-07-21T02:36:27;23.60;48.50
12981;DHT22;6555;50.468;8.480;2022-07-21T02:41:56;23.50;47.60
12981;DHT22;6555;50.468;8.480;2022-07-21T02:47:15;23.40;48.60
12981;DHT22;6555;50.468;8.480;2022-07-21T02:52:46;23.30;48.30
12981;DHT22;6555;50.468;8.480;2022-07-21T02:58:05;23.20;49.20
12981;DHT22;6555;50.468;8.480;2022-07-21T03:03:36;23.10;48.80
12981;DHT22;6555;50.468;8.480;2022-07-21T03:08:53;22.90;49.70
12981;DHT22;6555;50.468;8.480;2022-07-21T03:14:23;22.80;48.80
12981;DHT22;6555;50.468;8.480;2022-07-21T03:19:40;22.70;49.90
12981;DHT22;6555;50.468;8.480;2022-07-21T03:25:10;22.70;49.30
12981;DHT22;6555;50.468;8.480;2022-07-21T03:30:27;22.70;49.90
12981;DHT22;6555;50.468;8.480;2022-07-21T03:35:58;22.80;49.10
12981;DHT22;6555;50.468;8.480;2022-07-21T03:41:15;22.80;50.00
12981;DHT22;6555;50.468;8.480;2022-07-21T03:46:44;22.80;49.00
12981;DHT22;6555;50.468;8.480;2022-07-21T03:52:02;22.80;50.10
12981;DHT22;6555;50.468;8.480;2022-07-21T03:57:33;22.80;49.40
12981;DHT22;6555;50.468;8.480;2022-07-21T04:02:50;22.90;50.30
12981;DHT22;6555;50.468;8.480;2022-07-21T04:08:21;22.90;49.30
12981;DHT22;6555;50.468;8.480;2022-07-21T04:13:38;22.80;50.30
12981;DHT22;6555;50.468;8.480;2022-07-21T04:19:08;22.80;49.30
12981;DHT22;6555;50.468;8.480;2022-07-21T04:24:25;22.90;50.50
12981;DHT22;6555;50.468;8.480;2022-07-21T04:29:56;22.90;49.80
12981;DHT22;6555;50.468;8.480;2022-07-21T04:35:12;23.00;50.50
12981;DHT22;6555;50.468;8.480;2022-07-21T04:40:44;23.00;49.50
12981;DHT22;6555;50.468;8.480;2022-07-21T04:46:01;23.00;50.50
12981;DHT22;6555;50.468;8.480;2022-07-21T04:51:31;23.00;49.40
12981;DHT22;6555;50.468;8.480;2022-07-21T04:56:48;23.00;50.50
12981;DHT22;6555;50.468;8.480;2022-07-21T05:02:19;23.00;49.70
12981;DHT22;6555;50.468;8.480;2022-07-21T05:07:35;23.00;50.40
12981;DHT22;6555;50.468;8.480;2022-07-21T05:13:06;22.90;49.50
12981;DHT22;6555;50.468;8.480;2022-07-21T05:18:23;22.90;50.30
12981;DHT22;6555;50.468;8.480;2022-07-21T05:23:53;22.90;49.70
12981;DHT22;6555;50.468;8.480;2022-07-21T05:29:10;22.80;50.50
12981;DHT22;6555;50.468;8.480;2022-07-21T05:34:40;22.80;49.80
12981;DHT22;6555;50.468;8.480;2022-07-21T05:39:56;22.80;50.70
12981;DHT22;6555;50.468;8.480;2022-07-21T05:45:27;22.70;49.90
12981;DHT22;6555;50.468;8.480;2022-07-21T05:50:43;22.70;51.00
12981;DHT22;6555;50.468;8.480;2022-07-21T05:56:13;22.70;50.20
12981;DHT22;6555;50.468;8.480;2022-07-21T06:01:30;22.60;51.10
12981;DHT22;6555;50.468;8.480;2022-07-21T06:07:00;22.60;50.50
12981;DHT22;6555;50.468;8.480;2022-07-21T06:12:16;22.70;51.20
12981;DHT22;6555;50.468;8.480;2022-07-21T06:17:47;22.70;50.90
12981;DHT22;6555;50.468;8.480;2022-07-21T06:23:03;22.80;51.80
12981;DHT22;6555;50.468;8.480;2022-07-21T06:28:33;22.80;51.10
12981;DHT22;6555;50.468;8.480;2022-07-21T06:33:50;23.00;52.00
12981;DHT22;6555;50.468;8.480;2022-07-21T06:39:21;23.10;51.60
12981;DHT22;6555;50.468;8.480;2022-07-21T06:44:37;23.10;51.90
12981;DHT22;6555;50.468;8.480;2022-07-21T06:50:09;23.10;51.10
12981;DHT22;6555;50.468;8.480;2022-07-21T06:55:26;23.20;51.80
12981;DHT22;6555;50.468;8.480;2022-07-21T07:00:56;23.20;51.30
12981;DHT22;6555;50.468;8.480;2022-07-21T07:06:13;23.20;52.00
12981;DHT22;6555;50.468;8.480;2022-07-21T07:11:45;23.30;51.70
12981;DHT22;6555;50.468;8.480;2022-07-21T07:17:22;23.30;52.50
12981;DHT22;6555;50.468;8.480;2022-07-21T07:22:53;23.50;52.10
12981;DHT22;6555;50.468;8.480;2022-07-21T07:28:10;23.70;52.30
12981;DHT22;6555;50.468;8.480;2022-07-21T07:33:40;23.80;51.70
12981;DHT22;6555;50.468;8.480;2022-07-21T07:38:58;23.80;52.20
12981;DHT22;6555;50.468;8.480;2022-07-21T07:44:28;24.00;52.00
12981;DHT22;6555;50.468;8.480;2022-07-21T07:49:44;24.10;52.10
12981;DHT22;6555;50.468;8.480;2022-07-21T07:55:16;24.20;51.80
12981;DHT22;6555;50.468;8.480;2022-07-21T08:00:33;24.40;52.50
12981;DHT22;6555;50.468;8.480;2022-07-21T08:06:09;24.50;51.80
12981;DHT22;6555;50.468;8.480;2022-07-21T08:11:26;24.60;51.70
12981;DHT22;6555;50.468;8.480;2022-07-21T08:16:57;24.60;51.30
12981;DHT22;6555;50.468;8.480;2022-07-21T08:22:16;24.60;51.50
12981;DHT22;6555;50.468;8.480;2022-07-21T08:27:47;24.60;51.10
12981;DHT22;6555;50.468;8.480;2022-07-21T08:33:04;24.60;51.50
12981;DHT22;6555;50.468;8.480;2022-07-21T08:38:35;24.60;50.80
12981;DHT22;6555;50.468;8.480;2022-07-21T08:43:52;24.60;51.70
12981;DHT22;6555;50.468;8.480;2022-07-21T08:49:23;24.70;51.30
12981;DHT22;6555;50.468;8.480;2022-07-21T08:54:39;24.80;51.80
12981;DHT22;6555;50.468;8.480;2022-07-21T09:00:10;24.90;51.70
12981;DHT22;6555;50.468;8.480;2022-07-21T09:05:27;25.00;52.00
12981;DHT22;6555;50.468;8.480;2022-07-21T09:11:08;25.10;51.40
12981;DHT22;6555;50.468;8.480;2022-07-21T09:16:38;25.30;51.70
12981;DHT22;6555;50.468;8.480;2022-07-21T09:22:13;25.50;51.70
12981;DHT22;6555;50.468;8.480;2022-07-21T09:27:32;25.70;51.00
12981;DHT22;6555;50.468;8.480;2022-07-21T09:33:18;25.90;50.90
12981;DHT22;6555;50.468;8.480;2022-07-21T09:38:36;26.10;51.20
12981;DHT22;6555;50.468;8.480;2022-07-21T09:44:07;26.30;51.20
12981;DHT22;6555;50.468;8.480;2022-07-21T09:49:31;26.50;51.20
12981;DHT22;6555;50.468;8.480;2022-07-21T09:55:21;26.70;49.90
12981;DHT22;6555;50.468;8.480;2022-07-21T10:00:37;26.90;49.70
12981;DHT22;6555;50.468;8.480;2022-07-21T10:06:09;27.00;49.80
12981;DHT22;6555;50.468;8.480;2022-07-21T10:11:26;27.10;49.20
12981;DHT22;6555;50.468;8.480;2022-07-21T10:16:56;27.20;49.20
12981;DHT22;6555;50.468;8.480;2022-07-21T10:22:20;27.20;49.10
12981;DHT22;6555;50.468;8.480;2022-07-21T10:28:17;27.30;48.90
12981;DHT22;6555;50.468;8.480;2022-07-21T10:33:52;27.30;48.70
12981;DHT22;6555;50.468;8.480;2022-07-21T10:39:26;27.30;48.60
12981;DHT22;6555;50.468;8.480;2022-07-21T10:44:45;27.30;48.90
12981;DHT22;6555;50.468;8.480;2022-07-21T10:50:29;27.30;48.90
12981;DHT22;6555;50.468;8.480;2022-07-21T10:55:49;27.40;48.70
12981;DHT22;6555;50.468;8.480;2022-07-21T11:01:21;27.50;48.40
12981;DHT22;6555;50.468;8.480;2022-07-21T11:06:40;27.60;48.00
12981;DHT22;6555;50.468;8.480;2022-07-21T11:12:12;27.60;47.90
12981;DHT22;6555;50.468;8.480;2022-07-21T11:17:30;27.70;47.80
12981;DHT22;6555;50.468;8.480;2022-07-21T11:23:01;27.70;47.90
12981;DHT22;6555;50.468;8.480;2022-07-21T11:28:19;27.80;47.70
12981;DHT22;6555;50.468;8.480;2022-07-21T11:33:49;28.10;48.30
12981;DHT22;6555;50.468;8.480;2022-07-21T11:39:08;28.50;47.50
12981;DHT22;6555;50.468;8.480;2022-07-21T11:44:40;28.80;46.50
12981;DHT22;6555;50.468;8.480;2022-07-21T11:50:01;28.90;45.60
12981;DHT22;6555;50.468;8.480;2022-07-21T11:55:31;29.00;45.70
12981;DHT22;6555;50.468;8.480;2022-07-21T12:00:48;29.10;45.50
12981;DHT22;6555;50.468;8.480;2022-07-21T12:06:20;29.10;45.00
12981;DHT22;6555;50.468;8.480;2022-07-21T12:11:36;29.00;44.90
12981;DHT22;6555;50.468;8.480;2022-07-21T12:17:07;28.90;44.70
12981;DHT22;6555;50.468;8.480;2022-07-21T12:22:36;29.00;45.20
12981;DHT22;6555;50.468;8.480;2022-07-21T12:28:07;29.20;44.70
12981;DHT22;6555;50.468;8.480;2022-07-21T12:33:28;29.40;43.90
12981;DHT22;6555;50.468;8.480;2022-07-21T12:39:16;29.60;43.10
12981;DHT22;6555;50.468;8.480;2022-07-21T12:45:00;29.80;43.10
12981;DHT22;6555;50.468;8.480;2022-07-21T12:50:17;30.20;42.60
12981;DHT22;6555;50.468;8.480;2022-07-21T12:55:48;30.40;42.50
12981;DHT22;6555;50.468;8.480;2022-07-21T13:01:05;30.70;42.20
12981;DHT22;6555;50.468;8.480;2022-07-21T13:06:36;30.70;41.10
12981;DHT22;6555;50.468;8.480;2022-07-21T13:11:52;30.60;40.60
12981;DHT22;6555;50.468;8.480;2022-07-21T13:17:22;30.50;40.60
12981;DHT22;6555;50.468;8.480;2022-07-21T13:22:40;30.40;40.40
12981;DHT22;6555;50.468;8.480;2022-07-21T13:28:10;30.30;40.70
12981;DHT22;6555;50.468;8.480;2022-07-21T13:33:26;30.20;40.50
12981;DHT22;6555;50.468;8.480;2022-07-21T13:38:57;30.10;40.60
12981;DHT22;6555;50.468;8.480;2022-07-21T13:44:34;30.00;40.50
12981;DHT22;6555;50.468;8.480;2022-07-21T13:50:04;29.80;40.40
12981;DHT22;6555;50.468;8.480;2022-07-21T13:55:22;29.70;40.40
12981;DHT22;6555;50.468;8.480;2022-07-21T14:00:53;29.70;40.70
12981;DHT22;6555;50.468;8.480;2022-07-21T14:06:10;29.70;40.80
12981;DHT22;6555;50.468;8.480;2022-07-21T14:11:42;29.70;40.90
12981;DHT22;6555;50.468;8.480;2022-07-21T14:16:59;29.80;40.60
12981;DHT22;6555;50.468;8.480;2022-07-21T14:22:29;29.80;40.80
12981;DHT22;6555;50.468;8.480;2022-07-21T14:27:47;29.70;40.30
12981;DHT22;6555;50.468;8.480;2022-07-21T14:33:17;29.70;40.40
12981;DHT22;6555;50.468;8.480;2022-07-21T14:38:33;29.50;40.30
12981;DHT22;6555;50.468;8.480;2022-07-21T14:44:05;29.40;40.70
12981;DHT22;6555;50.468;8.480;2022-07-21T14:49:21;29.40;40.70
12981;DHT22;6555;50.468;8.480;2022-07-21T14:54:51;29.30;40.90
12981;DHT22;6555;50.468;8.480;2022-07-21T15:00:11;29.20;40.90
12981;DHT22;6555;50.468;8.480;2022-07-21T15:05:41;29.20;41.00
12981;DHT22;6555;50.468;8.480;2022-07-21T15:10:57;29.10;41.00
12981;DHT22;6555;50.468;8.480;2022-07-21T15:16:28;29.00;41.20
12981;DHT22;6555;50.468;8.480;2022-07-21T15:21:45;28.90;40.60
12981;DHT22;6555;50.468;8.480;2022-07-21T15:27:16;28.80;40.80
12981;DHT22;6555;50.468;8.480;2022-07-21T15:32:36;28.70;40.80
12981;DHT22;6555;50.468;8.480;2022-07-21T15:38:06;28.70;41.00
12981;DHT22;6555;50.468;8.480;2022-07-21T15:43:22;28.60;41.10
12981;DHT22;6555;50.468;8.480;2022-07-21T15:48:53;28.50;41.20
12981;DHT22;6555;50.468;8.480;2022-07-21T15:54:09;28.40;41.50
12981;DHT22;6555;50.468;8.480;2022-07-21T15:59:59;28.30;41.50
12981;DHT22;6555;50.468;8.480;2022-07-21T16:05:18;28.20;41.70
12981;DHT22;6555;50.468;8.480;2022-07-21T16:10:49;28.10;41.70
12981;DHT22;6555;50.468;8.480;2022-07-21T16:16:06;28.10;42.10
12981;DHT22;6555;50.468;8.480;2022-07-21T16:21:37;28.00;42.20
12981;DHT22;6555;50.468;8.480;2022-07-21T16:26:54;28.00;42.30
12981;DHT22;6555;50.468;8.480;2022-07-21T16:32:25;27.90;41.80
12981;DHT22;6555;50.468;8.480;2022-07-21T16:37:43;27.90;41.90
12981;DHT22;6555;50.468;8.480;2022-07-21T16:43:13;27.90;41.80
12981;DHT22;6555;50.468;8.480;2022-07-21T16:48:29;27.80;41.90
12981;DHT22;6555;50.468;8.480;2022-07-21T16:54:00;27.70;41.90
12981;DHT22;6555;50.468;8.480;2022-07-21T16:59:20;27.70;42.30
12981;DHT22;6555;50.468;8.480;2022-07-21T17:04:50;27.50;42.10
12981;DHT22;6555;50.468;8.480;2022-07-21T17:10:08;27.40;42.70
12981;DHT22;6555;50.468;8.480;2022-07-21T17:15:39;27.20;42.60
12981;DHT22;6555;50.468;8.480;2022-07-21T17:20:55;27.10;43.10
12981;DHT22;6555;50.468;8.480;2022-07-21T17:26:28;27.00;42.90
12981;DHT22;6555;50.468;8.480;2022-07-21T17:31:47;26.90;43.10
12981;DHT22;6555;50.468;8.480;2022-07-21T17:37:17;26.80;42.90
12981;DHT22;6555;50.468;8.480;2022-07-21T17:42:36;26.70;43.40
12981;DHT22;6555;50.468;8.480;2022-07-21T17:48:06;26.70;43.30
12981;DHT22;6555;50.468;8.480;2022-07-21T17:53:22;26.70;43.80
12981;DHT22;6555;50.468;8.480;2022-07-21T17:59:00;26.60;43.40
12981;DHT22;6555;50.468;8.480;2022-07-21T18:04:17;26.60;44.00
12981;DHT22;6555;50.468;8.480;2022-07-21T18:09:47;26.50;43.70
12981;DHT22;6555;50.468;8.480;2022-07-21T18:15:05;26.50;44.20
12981;DHT22;6555;50.468;8.480;2022-07-21T18:20:35;26.40;44.00
12981;DHT22;6555;50.468;8.480;2022-07-21T18:25:51;26.40;44.60
12981;DHT22;6555;50.468;8.480;2022-07-21T18:31:22;26.20;44.20
12981;DHT22;6555;50.468;8.480;2022-07-21T18:36:54;26.10;44.70
12981;DHT22;6555;50.468;8.480;2022-07-21T18:42:25;25.90;44.50
12981;DHT22;6555;50.468;8.480;2022-07-21T18:47:43;25.80;44.80
12981;DHT22;6555;50.468;8.480;2022-07-21T18:53:33;25.60;44.50
12981;DHT22;6555;50.468;8.480;2022-07-21T18:58:50;25.50;45.10
12981;DHT22;6555;50.468;8.480;2022-07-21T19:04:24;25.40;44.70
12981;DHT22;6555;50.468;8.480;2022-07-21T19:09:58;25.30;45.60
12981;DHT22;6555;50.468;8.480;2022-07-21T19:15:28;25.20;45.10
12981;DHT22;6555;50.468;8.480;2022-07-21T19:20:46;25.10;45.70
12981;DHT22;6555;50.468;8.480;2022-07-21T19:26:16;25.00;45.40
12981;DHT22;6555;50.468;8.480;2022-07-21T19:31:32;24.80;45.90
12981;DHT22;6555;50.468;8.480;2022-07-21T19:37:04;24.80;45.60
12981;DHT22;6555;50.468;8.480;2022-07-21T19:42:20;24.70;46.40
12981;DHT22;6555;50.468;8.480;2022-07-21T19:47:50;24.60;45.70
12981;DHT22;6555;50.468;8.480;2022-07-21T19:53:15;24.60;46.50
12981;DHT22;6555;50.468;8.480;2022-07-21T19:58:45;24.50;46.70
12981;DHT22;6555;50.468;8.480;2022-07-21T20:04:01;24.50;46.60
12981;DHT22;6555;50.468;8.480;2022-07-21T20:09:36;24.40;45.90
12981;DHT22;6555;50.468;8.480;2022-07-21T20:14:52;24.30;46.50
12981;DHT22;6555;50.468;8.480;2022-07-21T20:20:22;24.30;46.10
12981;DHT22;6555;50.468;8.480;2022-07-21T20:25:40;24.20;46.50
12981;DHT22;6555;50.468;8.480;2022-07-21T20:31:30;24.20;46.20
12981;DHT22;6555;50.468;8.480;2022-07-21T20:36:46;24.00;46.60
12981;DHT22;6555;50.468;8.480;2022-07-21T20:42:18;23.80;46.20
12981;DHT22;6555;50.468;8.480;2022-07-21T20:47:34;23.80;46.90
12981;DHT22;6555;50.468;8.480;2022-07-21T20:53:06;23.70;46.40
12981;DHT22;6555;50.468;8.480;2022-07-21T20:58:40;23.50;47.20
12981;DHT22;6555;50.468;8.480;2022-07-21T21:04:10;23.50;46.90
12981;DHT22;6555;50.468;8.480;2022-07-21T21:09:27;23.40;47.50
12981;DHT22;6555;50.468;8.480;2022-07-21T21:14:59;23.40;46.90
12981;DHT22;6555;50.468;8.480;2022-07-21T21:20:15;23.30;47.70
12981;DHT22;6555;50.468;8.480;2022-07-21T21:25:45;23.20;47.00
12981;DHT22;6555;50.468;8.480;2022-07-21T21:31:07;23.20;47.70
12981;DHT22;6555;50.468;8.480;2022-07-21T21:36:37;23.10;47.60
12981;DHT22;6555;50.468;8.480;2022-07-21T21:41:53;23.00;48.00
12981;DHT22;6555;50.468;8.480;2022-07-21T21:47:27;23.00;47.50
12981;DHT22;6555;50.468;8.480;2022-07-21T21:52:42;22.80;48.30
12981;DHT22;6555;50.468;8.480;2022-07-21T21:58:12;22.80;47.90
12981;DHT22;6555;50.468;8.480;2022-07-21T22:03:30;22.70;48.80
12981;DHT22;6555;50.468;8.480;2022-07-21T22:09:00;22.60;48.30
12981;DHT22;6555;50.468;8.480;2022-07-21T22:14:17;22.60;48.80
12981;DHT22;6555;50.468;8.480;2022-07-21T22:19:48;22.60;48.40
12981;DHT22;6555;50.468;8.480;2022-07-21T22:25:07;22.60;49.20
12981;DHT22;6555;50.468;8.480;2022-07-21T22:30:37;22.50;48.80
12981;DHT22;6555;50.468;8.480;2022-07-21T22:35:55;22.50;49.40
12981;DHT22;6555;50.468;8.480;2022-07-21T22:41:25;22.70;49.00
12981;DHT22;6555;50.468;8.480;2022-07-21T22:46:41;22.60;49.60
12981;DHT22;6555;50.468;8.480;2022-07-21T22:52:13;22.60;48.80
12981;DHT22;6555;50.468;8.480;2022-07-21T22:57:29;22.70;49.70
12981;DHT22;6555;50.468;8.480;2022-07-21T23:03:00;22.80;48.90
12981;DHT22;6555;50.468;8.480;2022-07-21T23:08:17;22.80;49.70
12981;DHT22;6555;50.468;8.480;2022-07-21T23:13:47;22.80;49.20
12981;DHT22;6555;50.468;8.480;2022-07-21T23:19:04;22.80;49.90
12981;DHT22;6555;50.468;8.480;2022-07-21T23:24:36;22.70;49.20
12981;DHT22;6555;50.468;8.480;2022-07-21T23:29:53;22.70;50.00
12981;DHT22;6555;50.468;8.480;2022-07-21T23:35:22;22.70;49.20
12981;DHT22;6555;50.468;8.480;2022-07-21T23:40:40;22.70;50.00
12981;DHT22;6555;50.468;8.480;2022-07-21T23:46:09;22.70;49.50
12981;DHT22;6555;50.468;8.480;2022-07-21T23:51:25;22.60;50.00
12981;DHT22;6555;50.468;8.480;2022-07-21T23:56:57;22.60;49.40
